sensor_id;sensor_type;location;lat;lon;timestamp;P1;durP1;ratioP1;P2;durP2;ratioP2
84444;SDS011;74683;48.402;10.596;2023-12-28T00:01:46;7.63;;;3.25;;
84444;SDS011;74683;48.402;10.596;2023-12-28T00:04:12;9.35;;;3.88;;
84444;SDS011;74683;48.402;10.596;2023-12-28T00:06:39;6.85;;;2.92;;
84444;SDS011;74683;48.402;10.596;2023-12-28T00:09:07;5.50;;;3.08;;
84444;SDS011;74683;48.402;10.596;2023-12-28T00:11:37;7.32;;;3.08;;
84444;SDS011;74683;48.402;10.596;2023-12-28T00:14:05;7.32;;;3.90;;
84444;SDS011;74683;48.402;10.596;2023-12-28T00:16:32;5.38;;;2.92;;
84444;SDS011;74683;48.402;10.596;2023-12-28T00:18:59;11.23;;;3.75;;
84444;SDS011;74683;48.402;10.596;2023-12-28T00:21:29;5.65;;;3.33;;
84444;SDS011;74683;48.402;10.596;2023-12-28T00:23:56;9.15;;;4.10;;
84444;SDS011;74683;48.402;10.596;2023-12-28T00:26:23;8.00;;;3.65;;
84444;SDS011;74683;48.402;10.596;2023-12-28T00:28:50;11.90;;;4.00;;
84444;SDS011;74683;48.402;10.596;2023-12-28T00:31:17;5.85;;;3.10;;
84444;SDS011;74683;48.402;10.596;2023-12-28T00:33:43;6.43;;;3.58;;
84444;SDS011;74683;48.402;10.596;2023-12-28T00:36:10;8.60;;;4.03;;
84444;SDS011;74683;48.402;10.596;2023-12-28T00:38:37;5.75;;;3.55;;
84444;SDS011;74683;48.402;10.596;2023-12-28T00:41:04;9.80;;;5.88;;
84444;SDS011;74683;48.402;10.596;2023-12-28T00:43:30;15.35;;;6.80;;
84444;SDS011;74683;48.402;10.596;2023-12-28T00:45:57;11.30;;;6.22;;
84444;SDS011;74683;48.402;10.596;2023-12-28T00:48:24;8.27;;;4.18;;
84444;SDS011;74683;48.402;10.596;2023-12-28T00:50:51;12.98;;;5.82;;
84444;SDS011;74683;48.402;10.596;2023-12-28T00:53:18;11.75;;;5.43;;
84444;SDS011;74683;48.402;10.596;2023-12-28T00:55:46;7.40;;;4.25;;
84444;SDS011;74683;48.402;10.596;2023-12-28T00:58:12;6.95;;;3.15;;
84444;SDS011;74683;48.402;10.596;2023-12-28T01:00:39;5.78;;;3.42;;
84444;SDS011;74683;48.402;10.596;2023-12-28T01:03:06;8.05;;;3.58;;
84444;SDS011;74683;48.402;10.596;2023-12-28T01:05:32;6.60;;;3.35;;
84444;SDS011;74683;48.402;10.596;2023-12-28T01:07:59;8.25;;;3.25;;
84444;SDS011;74683;48.402;10.596;2023-12-28T01:10:26;7.07;;;3.20;;
84444;SDS011;74683;48.402;10.596;2023-12-28T01:12:53;6.30;;;3.25;;
84444;SDS011;74683;48.402;10.596;2023-12-28T01:15:19;7.82;;;3.63;;
84444;SDS011;74683;48.402;10.596;2023-12-28T01:17:47;10.57;;;3.95;;
84444;SDS011;74683;48.402;10.596;2023-12-28T01:20:14;6.25;;;3.15;;
84444;SDS011;74683;48.402;10.596;2023-12-28T01:22:40;7.57;;;3.35;;
84444;SDS011;74683;48.402;10.596;2023-12-28T01:25:07;7.93;;;3.55;;
84444;SDS011;74683;48.402;10.596;2023-12-28T01:27:34;5.63;;;2.63;;
84444;SDS011;74683;48.402;10.596;2023-12-28T01:30:01;6.00;;;2.78;;
84444;SDS011;74683;48.402;10.596;2023-12-28T01:32:28;6.55;;;3.42;;
84444;SDS011;74683;48.402;10.596;2023-12-28T01:34:54;5.72;;;3.22;;
84444;SDS011;74683;48.402;10.596;2023-12-28T01:37:21;5.53;;;2.72;;
84444;SDS011;74683;48.402;10.596;2023-12-28T01:39:48;7.47;;;3.40;;
84444;SDS011;74683;48.402;10.596;2023-12-28T01:42:14;7.38;;;2.50;;
84444;SDS011;74683;48.402;10.596;2023-12-28T01:44:41;5.55;;;2.60;;
84444;SDS011;74683;48.402;10.596;2023-12-28T01:47:08;6.22;;;2.63;;
84444;SDS011;74683;48.402;10.596;2023-12-28T01:49:35;7.72;;;4.18;;
84444;SDS011;74683;48.402;10.596;2023-12-28T01:52:02;14.32;;;5.53;;
84444;SDS011;74683;48.402;10.596;2023-12-28T01:54:30;11.18;;;4.97;;
84444;SDS011;74683;48.402;10.596;2023-12-28T01:56:58;14.13;;;4.95;;
84444;SDS011;74683;48.402;10.596;2023-12-28T01:59:26;11.93;;;5.63;;
84444;SDS011;74683;48.402;10.596;2023-12-28T02:01:53;12.30;;;4.60;;
84444;SDS011;74683;48.402;10.596;2023-12-28T02:04:20;8.52;;;4.20;;
84444;SDS011;74683;48.402;10.596;2023-12-28T02:06:57;9.02;;;4.20;;
84444;SDS011;74683;48.402;10.596;2023-12-28T02:09:26;13.90;;;4.28;;
84444;SDS011;74683;48.402;10.596;2023-12-28T02:11:53;9.25;;;3.30;;
84444;SDS011;74683;48.402;10.596;2023-12-28T02:14:21;8.07;;;3.10;;
84444;SDS011;74683;48.402;10.596;2023-12-28T02:16:50;4.82;;;2.97;;
84444;SDS011;74683;48.402;10.596;2023-12-28T02:19:41;7.07;;;2.88;;
84444;SDS011;74683;48.402;10.596;2023-12-28T02:22:16;7.80;;;3.30;;
84444;SDS011;74683;48.402;10.596;2023-12-28T02:27:33;5.90;;;2.92;;
84444;SDS011;74683;48.402;10.596;2023-12-28T02:30:15;6.20;;;3.22;;
84444;SDS011;74683;48.402;10.596;2023-12-28T02:35:55;3.97;;;2.38;;
84444;SDS011;74683;48.402;10.596;2023-12-28T02:38:25;3.35;;;1.73;;
84444;SDS011;74683;48.402;10.596;2023-12-28T02:40:55;4.53;;;2.03;;
84444;SDS011;74683;48.402;10.596;2023-12-28T02:43:23;3.28;;;1.83;;
84444;SDS011;74683;48.402;10.596;2023-12-28T02:45:49;7.75;;;2.97;;
84444;SDS011;74683;48.402;10.596;2023-12-28T02:48:16;5.70;;;2.90;;
84444;SDS011;74683;48.402;10.596;2023-12-28T02:50:43;5.20;;;2.35;;
84444;SDS011;74683;48.402;10.596;2023-12-28T02:53:09;6.90;;;2.97;;
84444;SDS011;74683;48.402;10.596;2023-12-28T02:55:36;9.10;;;2.97;;
84444;SDS011;74683;48.402;10.596;2023-12-28T02:58:03;7.30;;;2.65;;
84444;SDS011;74683;48.402;10.596;2023-12-28T03:00:30;6.57;;;2.60;;
84444;SDS011;74683;48.402;10.596;2023-12-28T03:02:57;4.20;;;2.50;;
84444;SDS011;74683;48.402;10.596;2023-12-28T03:05:24;4.05;;;1.98;;
84444;SDS011;74683;48.402;10.596;2023-12-28T03:07:50;3.85;;;2.08;;
84444;SDS011;74683;48.402;10.596;2023-12-28T03:10:17;4.97;;;2.15;;
84444;SDS011;74683;48.402;10.596;2023-12-28T03:12:43;4.75;;;1.95;;
84444;SDS011;74683;48.402;10.596;2023-12-28T03:15:10;5.75;;;1.80;;
84444;SDS011;74683;48.402;10.596;2023-12-28T03:17:37;4.85;;;1.83;;
84444;SDS011;74683;48.402;10.596;2023-12-28T03:20:04;5.30;;;2.58;;
84444;SDS011;74683;48.402;10.596;2023-12-28T03:22:32;8.07;;;3.38;;
84444;SDS011;74683;48.402;10.596;2023-12-28T03:24:58;4.68;;;2.20;;
84444;SDS011;74683;48.402;10.596;2023-12-28T03:27:25;4.70;;;2.28;;
84444;SDS011;74683;48.402;10.596;2023-12-28T03:29:52;4.70;;;2.25;;
84444;SDS011;74683;48.402;10.596;2023-12-28T03:32:18;3.97;;;2.25;;
84444;SDS011;74683;48.402;10.596;2023-12-28T03:34:45;2.63;;;1.88;;
84444;SDS011;74683;48.402;10.596;2023-12-28T03:37:12;4.50;;;2.42;;
84444;SDS011;74683;48.402;10.596;2023-12-28T03:39:38;4.55;;;1.75;;
84444;SDS011;74683;48.402;10.596;2023-12-28T03:42:05;5.47;;;1.80;;
84444;SDS011;74683;48.402;10.596;2023-12-28T03:44:32;3.97;;;1.90;;
84444;SDS011;74683;48.402;10.596;2023-12-28T03:46:58;5.15;;;2.13;;
84444;SDS011;74683;48.402;10.596;2023-12-28T03:49:26;5.68;;;1.70;;
84444;SDS011;74683;48.402;10.596;2023-12-28T03:51:53;5.25;;;2.20;;
84444;SDS011;74683;48.402;10.596;2023-12-28T03:54:20;5.20;;;1.95;;
84444;SDS011;74683;48.402;10.596;2023-12-28T03:56:47;7.00;;;2.38;;
84444;SDS011;74683;48.402;10.596;2023-12-28T03:59:13;4.68;;;1.80;;
84444;SDS011;74683;48.402;10.596;2023-12-28T04:01:44;4.15;;;1.75;;
84444;SDS011;74683;48.402;10.596;2023-12-28T04:04:11;6.03;;;1.85;;
84444;SDS011;74683;48.402;10.596;2023-12-28T04:06:38;4.15;;;1.58;;
84444;SDS011;74683;48.402;10.596;2023-12-28T04:09:05;3.00;;;1.65;;
84444;SDS011;74683;48.402;10.596;2023-12-28T04:11:31;3.90;;;1.90;;
84444;SDS011;74683;48.402;10.596;2023-12-28T04:13:58;5.15;;;2.05;;
84444;SDS011;74683;48.402;10.596;2023-12-28T04:16:25;3.97;;;1.95;;
84444;SDS011;74683;48.402;10.596;2023-12-28T04:18:51;2.00;;;1.27;;
84444;SDS011;74683;48.402;10.596;2023-12-28T04:21:18;4.65;;;2.40;;
84444;SDS011;74683;48.402;10.596;2023-12-28T04:23:45;4.13;;;1.65;;
84444;SDS011;74683;48.402;10.596;2023-12-28T04:26:12;6.00;;;1.88;;
84444;SDS011;74683;48.402;10.596;2023-12-28T04:28:39;7.22;;;2.20;;
84444;SDS011;74683;48.402;10.596;2023-12-28T04:31:05;3.60;;;1.70;;
84444;SDS011;74683;48.402;10.596;2023-12-28T04:33:33;3.10;;;1.80;;
84444;SDS011;74683;48.402;10.596;2023-12-28T04:36:01;4.53;;;2.30;;
84444;SDS011;74683;48.402;10.596;2023-12-28T04:38:32;4.47;;;2.30;;
84444;SDS011;74683;48.402;10.596;2023-12-28T04:40:59;4.15;;;1.80;;
84444;SDS011;74683;48.402;10.596;2023-12-28T04:43:28;4.75;;;1.80;;
84444;SDS011;74683;48.402;10.596;2023-12-28T04:45:55;8.45;;;2.40;;
84444;SDS011;74683;48.402;10.596;2023-12-28T04:48:21;4.15;;;1.98;;
84444;SDS011;74683;48.402;10.596;2023-12-28T04:50:50;3.13;;;1.58;;
84444;SDS011;74683;48.402;10.596;2023-12-28T04:53:19;4.47;;;1.73;;
84444;SDS011;74683;48.402;10.596;2023-12-28T04:55:46;3.67;;;1.90;;
84444;SDS011;74683;48.402;10.596;2023-12-28T04:58:13;3.33;;;1.42;;
84444;SDS011;74683;48.402;10.596;2023-12-28T05:00:40;3.30;;;1.70;;
84444;SDS011;74683;48.402;10.596;2023-12-28T05:03:07;2.53;;;1.40;;
84444;SDS011;74683;48.402;10.596;2023-12-28T05:05:35;3.28;;;1.30;;
84444;SDS011;74683;48.402;10.596;2023-12-28T05:08:02;5.05;;;1.92;;
84444;SDS011;74683;48.402;10.596;2023-12-28T05:10:28;6.60;;;1.88;;
84444;SDS011;74683;48.402;10.596;2023-12-28T05:12:55;2.63;;;1.50;;
84444;SDS011;74683;48.402;10.596;2023-12-28T05:15:27;6.13;;;1.70;;
84444;SDS011;74683;48.402;10.596;2023-12-28T05:17:54;4.05;;;1.75;;
84444;SDS011;74683;48.402;10.596;2023-12-28T05:20:22;5.55;;;2.20;;
84444;SDS011;74683;48.402;10.596;2023-12-28T05:22:48;6.22;;;2.95;;
84444;SDS011;74683;48.402;10.596;2023-12-28T05:25:15;7.30;;;3.53;;
84444;SDS011;74683;48.402;10.596;2023-12-28T05:27:42;5.35;;;2.08;;
84444;SDS011;74683;48.402;10.596;2023-12-28T05:30:10;8.27;;;3.67;;
84444;SDS011;74683;48.402;10.596;2023-12-28T05:32:38;14.05;;;6.50;;
84444;SDS011;74683;48.402;10.596;2023-12-28T05:35:05;10.07;;;4.47;;
84444;SDS011;74683;48.402;10.596;2023-12-28T05:37:32;4.95;;;2.53;;
84444;SDS011;74683;48.402;10.596;2023-12-28T05:39:59;4.90;;;2.70;;
84444;SDS011;74683;48.402;10.596;2023-12-28T05:42:26;6.18;;;2.92;;
84444;SDS011;74683;48.402;10.596;2023-12-28T05:44:52;5.25;;;2.28;;
84444;SDS011;74683;48.402;10.596;2023-12-28T05:47:19;5.20;;;2.00;;
84444;SDS011;74683;48.402;10.596;2023-12-28T05:49:46;8.15;;;4.13;;
84444;SDS011;74683;48.402;10.596;2023-12-28T05:52:13;7.68;;;2.40;;
84444;SDS011;74683;48.402;10.596;2023-12-28T05:54:41;6.95;;;3.38;;
84444;SDS011;74683;48.402;10.596;2023-12-28T05:57:10;11.18;;;5.45;;
84444;SDS011;74683;48.402;10.596;2023-12-28T05:59:37;8.32;;;4.47;;
84444;SDS011;74683;48.402;10.596;2023-12-28T06:02:05;7.10;;;3.38;;
84444;SDS011;74683;48.402;10.596;2023-12-28T06:04:32;5.20;;;3.03;;
84444;SDS011;74683;48.402;10.596;2023-12-28T06:07:00;6.68;;;2.97;;
84444;SDS011;74683;48.402;10.596;2023-12-28T06:09:28;4.20;;;2.03;;
84444;SDS011;74683;48.402;10.596;2023-12-28T06:11:55;6.43;;;2.65;;
84444;SDS011;74683;48.402;10.596;2023-12-28T06:14:21;10.13;;;3.03;;
84444;SDS011;74683;48.402;10.596;2023-12-28T06:16:48;9.98;;;4.38;;
84444;SDS011;74683;48.402;10.596;2023-12-28T06:19:15;13.57;;;5.32;;
84444;SDS011;74683;48.402;10.596;2023-12-28T06:21:41;12.38;;;4.30;;
84444;SDS011;74683;48.402;10.596;2023-12-28T06:24:09;8.70;;;4.00;;
84444;SDS011;74683;48.402;10.596;2023-12-28T06:26:38;10.00;;;3.72;;
84444;SDS011;74683;48.402;10.596;2023-12-28T06:29:07;12.07;;;4.28;;
84444;SDS011;74683;48.402;10.596;2023-12-28T06:31:35;6.90;;;3.80;;
84444;SDS011;74683;48.402;10.596;2023-12-28T06:34:03;7.57;;;3.78;;
84444;SDS011;74683;48.402;10.596;2023-12-28T06:36:30;9.55;;;3.65;;
84444;SDS011;74683;48.402;10.596;2023-12-28T06:38:57;7.25;;;3.35;;
84444;SDS011;74683;48.402;10.596;2023-12-28T06:41:24;11.27;;;3.63;;
84444;SDS011;74683;48.402;10.596;2023-12-28T06:43:51;9.57;;;3.33;;
84444;SDS011;74683;48.402;10.596;2023-12-28T06:46:19;10.00;;;4.03;;
84444;SDS011;74683;48.402;10.596;2023-12-28T06:48:46;14.50;;;3.60;;
84444;SDS011;74683;48.402;10.596;2023-12-28T06:51:16;7.72;;;3.72;;
84444;SDS011;74683;48.402;10.596;2023-12-28T06:53:45;13.05;;;3.55;;
84444;SDS011;74683;48.402;10.596;2023-12-28T06:56:12;7.22;;;3.03;;
84444;SDS011;74683;48.402;10.596;2023-12-28T06:58:39;5.95;;;3.63;;
84444;SDS011;74683;48.402;10.596;2023-12-28T07:01:05;8.75;;;3.45;;
84444;SDS011;74683;48.402;10.596;2023-12-28T07:03:32;5.07;;;3.13;;
84444;SDS011;74683;48.402;10.596;2023-12-28T07:06:00;4.57;;;2.30;;
84444;SDS011;74683;48.402;10.596;2023-12-28T07:08:26;2.55;;;1.73;;
84444;SDS011;74683;48.402;10.596;2023-12-28T07:10:53;5.97;;;2.60;;
84444;SDS011;74683;48.402;10.596;2023-12-28T07:13:23;6.00;;;2.97;;
84444;SDS011;74683;48.402;10.596;2023-12-28T07:15:49;4.82;;;2.60;;
84444;SDS011;74683;48.402;10.596;2023-12-28T07:18:16;9.70;;;3.75;;
84444;SDS011;74683;48.402;10.596;2023-12-28T07:20:43;12.70;;;5.20;;
84444;SDS011;74683;48.402;10.596;2023-12-28T07:23:10;14.30;;;6.68;;
84444;SDS011;74683;48.402;10.596;2023-12-28T07:25:36;19.95;;;8.27;;
84444;SDS011;74683;48.402;10.596;2023-12-28T07:28:03;14.95;;;7.15;;
84444;SDS011;74683;48.402;10.596;2023-12-28T07:30:30;12.20;;;5.20;;
84444;SDS011;74683;48.402;10.596;2023-12-28T07:32:57;11.05;;;5.43;;
84444;SDS011;74683;48.402;10.596;2023-12-28T07:35:24;9.63;;;4.18;;
84444;SDS011;74683;48.402;10.596;2023-12-28T07:37:51;10.45;;;4.50;;
84444;SDS011;74683;48.402;10.596;2023-12-28T07:40:17;7.82;;;3.47;;
84444;SDS011;74683;48.402;10.596;2023-12-28T07:42:44;11.18;;;4.13;;
84444;SDS011;74683;48.402;10.596;2023-12-28T07:45:11;13.60;;;5.45;;
84444;SDS011;74683;48.402;10.596;2023-12-28T07:47:37;10.52;;;4.78;;
84444;SDS011;74683;48.402;10.596;2023-12-28T07:50:04;13.00;;;4.25;;
84444;SDS011;74683;48.402;10.596;2023-12-28T07:52:31;10.82;;;4.72;;
84444;SDS011;74683;48.402;10.596;2023-12-28T07:54:58;10.20;;;4.70;;
84444;SDS011;74683;48.402;10.596;2023-12-28T07:57:25;11.15;;;4.47;;
84444;SDS011;74683;48.402;10.596;2023-12-28T07:59:52;11.30;;;4.43;;
84444;SDS011;74683;48.402;10.596;2023-12-28T08:02:19;11.48;;;4.20;;
84444;SDS011;74683;48.402;10.596;2023-12-28T08:04:47;5.68;;;3.22;;
84444;SDS011;74683;48.402;10.596;2023-12-28T08:07:15;13.43;;;4.15;;
84444;SDS011;74683;48.402;10.596;2023-12-28T08:09:41;9.45;;;2.85;;
84444;SDS011;74683;48.402;10.596;2023-12-28T08:12:08;7.03;;;2.92;;
84444;SDS011;74683;48.402;10.596;2023-12-28T08:14:35;4.95;;;2.75;;
84444;SDS011;74683;48.402;10.596;2023-12-28T08:17:01;9.63;;;3.83;;
84444;SDS011;74683;48.402;10.596;2023-12-28T08:19:29;10.85;;;3.58;;
84444;SDS011;74683;48.402;10.596;2023-12-28T08:21:56;5.32;;;2.15;;
84444;SDS011;74683;48.402;10.596;2023-12-28T08:24:22;4.30;;;2.00;;
84444;SDS011;74683;48.402;10.596;2023-12-28T08:26:49;3.25;;;1.80;;
84444;SDS011;74683;48.402;10.596;2023-12-28T08:29:15;4.10;;;1.85;;
84444;SDS011;74683;48.402;10.596;2023-12-28T08:31:42;8.15;;;2.08;;
84444;SDS011;74683;48.402;10.596;2023-12-28T08:34:13;3.03;;;1.70;;
84444;SDS011;74683;48.402;10.596;2023-12-28T08:36:40;3.38;;;1.65;;
84444;SDS011;74683;48.402;10.596;2023-12-28T08:39:08;4.07;;;1.80;;
84444;SDS011;74683;48.402;10.596;2023-12-28T08:41:34;4.72;;;1.80;;
84444;SDS011;74683;48.402;10.596;2023-12-28T08:44:01;3.78;;;1.45;;
84444;SDS011;74683;48.402;10.596;2023-12-28T08:46:28;4.30;;;1.65;;
84444;SDS011;74683;48.402;10.596;2023-12-28T08:48:55;4.55;;;1.70;;
84444;SDS011;74683;48.402;10.596;2023-12-28T08:51:22;6.95;;;1.77;;
84444;SDS011;74683;48.402;10.596;2023-12-28T08:53:49;2.75;;;1.33;;
84444;SDS011;74683;48.402;10.596;2023-12-28T08:56:16;2.85;;;1.60;;
84444;SDS011;74683;48.402;10.596;2023-12-28T08:58:44;3.03;;;1.23;;
84444;SDS011;74683;48.402;10.596;2023-12-28T09:01:30;3.03;;;1.35;;
84444;SDS011;74683;48.402;10.596;2023-12-28T09:03:57;2.60;;;1.10;;
84444;SDS011;74683;48.402;10.596;2023-12-28T09:06:25;2.38;;;1.27;;
84444;SDS011;74683;48.402;10.596;2023-12-28T09:08:52;4.22;;;2.10;;
84444;SDS011;74683;48.402;10.596;2023-12-28T09:11:19;3.65;;;1.60;;
84444;SDS011;74683;48.402;10.596;2023-12-28T09:13:45;6.25;;;1.85;;
84444;SDS011;74683;48.402;10.596;2023-12-28T09:16:13;2.63;;;1.60;;
84444;SDS011;74683;48.402;10.596;2023-12-28T09:18:41;2.30;;;1.00;;
84444;SDS011;74683;48.402;10.596;2023-12-28T09:21:09;2.22;;;1.10;;
84444;SDS011;74683;48.402;10.596;2023-12-28T09:23:36;3.65;;;1.30;;
84444;SDS011;74683;48.402;10.596;2023-12-28T09:26:04;2.67;;;1.17;;
84444;SDS011;74683;48.402;10.596;2023-12-28T09:28:32;3.58;;;1.20;;
84444;SDS011;74683;48.402;10.596;2023-12-28T09:30:59;2.75;;;1.58;;
84444;SDS011;74683;48.402;10.596;2023-12-28T09:33:27;1.90;;;1.13;;
84444;SDS011;74683;48.402;10.596;2023-12-28T09:35:54;2.85;;;1.30;;
84444;SDS011;74683;48.402;10.596;2023-12-28T09:38:20;2.58;;;1.20;;
84444;SDS011;74683;48.402;10.596;2023-12-28T09:40:51;2.45;;;1.50;;
84444;SDS011;74683;48.402;10.596;2023-12-28T09:43:30;3.88;;;1.73;;
84444;SDS011;74683;48.402;10.596;2023-12-28T09:46:07;4.00;;;1.45;;
84444;SDS011;74683;48.402;10.596;2023-12-28T09:48:34;1.92;;;1.10;;
84444;SDS011;74683;48.402;10.596;2023-12-28T09:51:03;3.20;;;1.30;;
84444;SDS011;74683;48.402;10.596;2023-12-28T09:53:29;3.80;;;1.23;;
84444;SDS011;74683;48.402;10.596;2023-12-28T09:55:56;4.55;;;1.67;;
84444;SDS011;74683;48.402;10.596;2023-12-28T09:58:24;6.38;;;2.63;;
84444;SDS011;74683;48.402;10.596;2023-12-28T10:00:51;11.30;;;4.68;;
84444;SDS011;74683;48.402;10.596;2023-12-28T10:03:19;8.77;;;3.45;;
84444;SDS011;74683;48.402;10.596;2023-12-28T10:05:46;5.93;;;2.08;;
84444;SDS011;74683;48.402;10.596;2023-12-28T10:08:14;3.40;;;1.30;;
84444;SDS011;74683;48.402;10.596;2023-12-28T10:10:42;2.72;;;1.40;;
84444;SDS011;74683;48.402;10.596;2023-12-28T10:13:10;4.00;;;1.70;;
84444;SDS011;74683;48.402;10.596;2023-12-28T10:15:37;3.20;;;1.75;;
84444;SDS011;74683;48.402;10.596;2023-12-28T10:18:05;4.47;;;2.00;;
84444;SDS011;74683;48.402;10.596;2023-12-28T10:20:32;3.05;;;1.27;;
84444;SDS011;74683;48.402;10.596;2023-12-28T10:22:59;1.92;;;1.20;;
84444;SDS011;74683;48.402;10.596;2023-12-28T10:25:27;5.60;;;1.70;;
84444;SDS011;74683;48.402;10.596;2023-12-28T10:27:54;2.63;;;1.50;;
84444;SDS011;74683;48.402;10.596;2023-12-28T10:30:21;4.15;;;1.95;;
84444;SDS011;74683;48.402;10.596;2023-12-28T10:32:48;3.53;;;2.03;;
84444;SDS011;74683;48.402;10.596;2023-12-28T10:35:15;5.10;;;1.40;;
84444;SDS011;74683;48.402;10.596;2023-12-28T10:37:43;2.50;;;1.42;;
84444;SDS011;74683;48.402;10.596;2023-12-28T10:40:12;5.63;;;1.20;;
84444;SDS011;74683;48.402;10.596;2023-12-28T10:42:46;3.00;;;1.50;;
84444;SDS011;74683;48.402;10.596;2023-12-28T10:45:31;2.65;;;1.30;;
84444;SDS011;74683;48.402;10.596;2023-12-28T10:48:09;3.85;;;1.30;;
84444;SDS011;74683;48.402;10.596;2023-12-28T10:50:38;4.13;;;1.23;;
84444;SDS011;74683;48.402;10.596;2023-12-28T10:53:21;2.10;;;0.90;;
84444;SDS011;74683;48.402;10.596;2023-12-28T10:58:48;5.15;;;2.75;;
84444;SDS011;74683;48.402;10.596;2023-12-28T11:01:17;5.68;;;3.17;;
84444;SDS011;74683;48.402;10.596;2023-12-28T11:03:58;3.20;;;1.60;;
84444;SDS011;74683;48.402;10.596;2023-12-28T11:06:30;4.00;;;1.70;;
84444;SDS011;74683;48.402;10.596;2023-12-28T11:08:58;3.40;;;2.22;;
84444;SDS011;74683;48.402;10.596;2023-12-28T11:11:27;5.63;;;2.30;;
84444;SDS011;74683;48.402;10.596;2023-12-28T11:13:55;4.78;;;1.67;;
84444;SDS011;74683;48.402;10.596;2023-12-28T11:16:22;3.05;;;1.70;;
84444;SDS011;74683;48.402;10.596;2023-12-28T11:18:50;3.53;;;1.85;;
84444;SDS011;74683;48.402;10.596;2023-12-28T11:21:17;3.70;;;1.58;;
84444;SDS011;74683;48.402;10.596;2023-12-28T11:23:45;3.40;;;1.90;;
84444;SDS011;74683;48.402;10.596;2023-12-28T11:26:22;3.67;;;1.60;;
84444;SDS011;74683;48.402;10.596;2023-12-28T11:28:49;3.20;;;1.40;;
84444;SDS011;74683;48.402;10.596;2023-12-28T11:31:16;3.60;;;1.30;;
84444;SDS011;74683;48.402;10.596;2023-12-28T11:33:48;3.10;;;1.30;;
84444;SDS011;74683;48.402;10.596;2023-12-28T11:36:22;2.72;;;1.50;;
84444;SDS011;74683;48.402;10.596;2023-12-28T11:38:53;4.20;;;1.70;;
84444;SDS011;74683;48.402;10.596;2023-12-28T11:41:25;4.00;;;1.70;;
84444;SDS011;74683;48.402;10.596;2023-12-28T11:43:55;4.25;;;1.85;;
84444;SDS011;74683;48.402;10.596;2023-12-28T11:46:22;4.78;;;1.67;;
84444;SDS011;74683;48.402;10.596;2023-12-28T11:48:49;3.22;;;1.90;;
84444;SDS011;74683;48.402;10.596;2023-12-28T11:51:16;2.75;;;1.42;;
84444;SDS011;74683;48.402;10.596;2023-12-28T11:53:43;3.80;;;1.70;;
84444;SDS011;74683;48.402;10.596;2023-12-28T11:58:41;4.82;;;2.15;;
84444;SDS011;74683;48.402;10.596;2023-12-28T12:01:10;3.13;;;1.50;;
84444;SDS011;74683;48.402;10.596;2023-12-28T12:03:36;2.90;;;1.48;;
84444;SDS011;74683;48.402;10.596;2023-12-28T12:06:04;5.38;;;1.55;;
84444;SDS011;74683;48.402;10.596;2023-12-28T12:08:30;2.88;;;1.50;;
84444;SDS011;74683;48.402;10.596;2023-12-28T12:11:01;3.70;;;1.60;;
84444;SDS011;74683;48.402;10.596;2023-12-28T12:13:30;2.38;;;1.30;;
84444;SDS011;74683;48.402;10.596;2023-12-28T12:15:58;4.85;;;2.53;;
84444;SDS011;74683;48.402;10.596;2023-12-28T12:18:28;3.45;;;1.50;;
84444;SDS011;74683;48.402;10.596;2023-12-28T12:21:12;2.72;;;1.75;;
84444;SDS011;74683;48.402;10.596;2023-12-28T12:23:39;3.17;;;1.60;;
84444;SDS011;74683;48.402;10.596;2023-12-28T12:26:06;4.05;;;1.38;;
84444;SDS011;74683;48.402;10.596;2023-12-28T12:28:33;3.42;;;1.30;;
84444;SDS011;74683;48.402;10.596;2023-12-28T12:31:00;3.17;;;1.60;;
84444;SDS011;74683;48.402;10.596;2023-12-28T12:33:31;4.90;;;1.33;;
84444;SDS011;74683;48.402;10.596;2023-12-28T12:35:58;4.20;;;1.80;;
84444;SDS011;74683;48.402;10.596;2023-12-28T12:38:25;3.03;;;1.83;;
84444;SDS011;74683;48.402;10.596;2023-12-28T12:40:52;2.55;;;1.30;;
84444;SDS011;74683;48.402;10.596;2023-12-28T12:43:19;4.18;;;1.65;;
84444;SDS011;74683;48.402;10.596;2023-12-28T12:45:46;2.80;;;1.33;;
84444;SDS011;74683;48.402;10.596;2023-12-28T12:48:15;3.85;;;1.60;;
84444;SDS011;74683;48.402;10.596;2023-12-28T12:50:42;3.53;;;1.70;;
84444;SDS011;74683;48.402;10.596;2023-12-28T12:53:10;2.78;;;1.67;;
84444;SDS011;74683;48.402;10.596;2023-12-28T12:55:37;2.88;;;1.50;;
84444;SDS011;74683;48.402;10.596;2023-12-28T12:58:09;4.32;;;2.10;;
84444;SDS011;74683;48.402;10.596;2023-12-28T13:00:36;4.60;;;2.03;;
84444;SDS011;74683;48.402;10.596;2023-12-28T13:03:07;3.40;;;1.40;;
84444;SDS011;74683;48.402;10.596;2023-12-28T13:05:34;4.22;;;1.92;;
84444;SDS011;74683;48.402;10.596;2023-12-28T13:08:03;3.40;;;1.73;;
84444;SDS011;74683;48.402;10.596;2023-12-28T13:10:30;4.45;;;2.20;;
84444;SDS011;74683;48.402;10.596;2023-12-28T13:12:58;3.67;;;2.22;;
84444;SDS011;74683;48.402;10.596;2023-12-28T13:15:26;4.85;;;2.00;;
84444;SDS011;74683;48.402;10.596;2023-12-28T13:17:53;2.40;;;1.63;;
84444;SDS011;74683;48.402;10.596;2023-12-28T13:20:19;4.95;;;2.25;;
84444;SDS011;74683;48.402;10.596;2023-12-28T13:22:46;3.75;;;2.22;;
84444;SDS011;74683;48.402;10.596;2023-12-28T13:25:13;5.75;;;2.50;;
84444;SDS011;74683;48.402;10.596;2023-12-28T13:27:41;6.00;;;2.55;;
84444;SDS011;74683;48.402;10.596;2023-12-28T13:30:08;3.85;;;1.90;;
84444;SDS011;74683;48.402;10.596;2023-12-28T13:32:35;4.60;;;1.90;;
84444;SDS011;74683;48.402;10.596;2023-12-28T13:35:02;12.05;;;4.55;;
84444;SDS011;74683;48.402;10.596;2023-12-28T13:37:30;12.45;;;3.60;;
84444;SDS011;74683;48.402;10.596;2023-12-28T13:39:56;7.90;;;3.53;;
84444;SDS011;74683;48.402;10.596;2023-12-28T13:42:23;7.90;;;3.15;;
84444;SDS011;74683;48.402;10.596;2023-12-28T13:44:49;6.30;;;3.20;;
84444;SDS011;74683;48.402;10.596;2023-12-28T13:47:16;4.30;;;1.88;;
84444;SDS011;74683;48.402;10.596;2023-12-28T13:49:43;5.40;;;2.72;;
84444;SDS011;74683;48.402;10.596;2023-12-28T13:52:10;4.88;;;1.85;;
84444;SDS011;74683;48.402;10.596;2023-12-28T13:54:36;4.30;;;1.88;;
84444;SDS011;74683;48.402;10.596;2023-12-28T13:57:03;3.20;;;2.22;;
84444;SDS011;74683;48.402;10.596;2023-12-28T13:59:30;6.28;;;2.42;;
84444;SDS011;74683;48.402;10.596;2023-12-28T14:01:57;3.83;;;2.03;;
84444;SDS011;74683;48.402;10.596;2023-12-28T14:04:24;4.90;;;1.60;;
84444;SDS011;74683;48.402;10.596;2023-12-28T14:06:51;3.40;;;1.70;;
84444;SDS011;74683;48.402;10.596;2023-12-28T14:09:18;2.75;;;1.58;;
84444;SDS011;74683;48.402;10.596;2023-12-28T14:11:47;2.10;;;1.02;;
84444;SDS011;74683;48.402;10.596;2023-12-28T14:14:14;2.72;;;1.33;;
84444;SDS011;74683;48.402;10.596;2023-12-28T14:16:41;2.70;;;1.35;;
84444;SDS011;74683;48.402;10.596;2023-12-28T14:19:12;2.95;;;1.25;;
84444;SDS011;74683;48.402;10.596;2023-12-28T14:21:38;2.17;;;1.05;;
84444;SDS011;74683;48.402;10.596;2023-12-28T14:24:05;2.80;;;1.50;;
84444;SDS011;74683;48.402;10.596;2023-12-28T14:26:33;2.95;;;1.40;;
84444;SDS011;74683;48.402;10.596;2023-12-28T14:29:00;3.05;;;1.50;;
84444;SDS011;74683;48.402;10.596;2023-12-28T14:31:31;5.53;;;2.90;;
84444;SDS011;74683;48.402;10.596;2023-12-28T14:33:59;3.65;;;1.92;;
84444;SDS011;74683;48.402;10.596;2023-12-28T14:36:33;3.45;;;1.85;;
84444;SDS011;74683;48.402;10.596;2023-12-28T14:39:04;2.20;;;1.45;;
84444;SDS011;74683;48.402;10.596;2023-12-28T14:41:34;2.65;;;1.50;;
84444;SDS011;74683;48.402;10.596;2023-12-28T14:44:06;4.55;;;2.00;;
84444;SDS011;74683;48.402;10.596;2023-12-28T14:46:33;5.20;;;2.00;;
84444;SDS011;74683;48.402;10.596;2023-12-28T14:48:59;5.15;;;2.13;;